Time;durP1;ratioP1;P1;durP2;ratioP2;P2;SDS_P1;SDS_P2;PMS_P1;PMS_P2;Temp;Humidity;BMP_temperature;BMP_pressure;BME280_temperature;BME280_humidity;BME280_pressure;Samples;Min_cycle;Max_cycle;Signal;HPM_P1;HPM_P2
2022/12/29 08:05:50;;;;;;;7.28;3.27;;;;;;;0.83;100.00;101454.73;1820007;77;28917;-88
2022/12/29 08:08:35;;;;;;;6.92;3.77;;;;;;;1.02;100.00;101455.15;1762746;78;21050;-87
2022/12/29 08:11:19;;;;;;;5.35;3.22;;;;;;;1.20;100.00;101439.88;1771976;80;21538;-87
2022/12/29 08:14:04;;;;;;;8.80;3.60;;;;;;;1.37;100.00;101437.75;1771134;79;21877;-87
2022/12/29 08:16:49;;;;;;;4.33;2.70;;;;;;;1.52;100.00;101435.80;1772312;80;21815;-87
2022/12/29 08:19:34;;;;;;;6.87;2.87;;;;;;;1.65;100.00;101423.77;1750371;80;21494;-89
2022/12/29 08:22:18;;;;;;;6.25;2.62;;;;;;;1.78;100.00;101412.76;1741091;81;21020;-86
2022/12/29 08:25:04;;;;;;;5.45;3.08;;;;;;;1.87;100.00;101408.88;1707298;82;21063;-88
2022/12/29 08:27:48;;;;;;;6.55;3.40;;;;;;;1.93;100.00;101397.33;1756129;81;21498;-88
2022/12/29 08:30:34;;;;;;;7.00;3.65;;;;;;;2.00;100.00;101394.12;1743631;81;21027;-88
2022/12/29 08:33:18;;;;;;;5.47;3.20;;;;;;;2.08;100.00;101398.02;1746016;80;21003;-87
2022/12/29 08:36:08;;;;;;;6.75;2.67;;;;;;;2.15;100.00;101389.45;1739969;81;21550;-87
2022/12/29 08:38:53;;;;;;;7.12;3.42;;;;;;;2.22;100.00;101391.33;1749146;81;21043;-87
2022/12/29 08:41:38;;;;;;;8.45;3.05;;;;;;;2.32;100.00;101396.64;1707839;82;21462;-89
2022/12/29 08:44:26;;;;;;;8.73;3.30;;;;;;;2.43;100.00;101396.60;1708216;80;21042;-88
2022/12/29 08:47:11;;;;;;;8.68;2.92;;;;;;;2.51;100.00;101399.63;1730295;81;21528;-88
2022/12/29 08:49:55;;;;;;;6.90;3.33;;;;;;;2.56;100.00;101402.03;1757627;80;20972;-87
2022/12/29 08:52:40;;;;;;;5.83;3.35;;;;;;;2.56;100.00;101397.98;1706688;83;21038;-88
2022/12/29 08:55:25;;;;;;;10.60;3.77;;;;;;;2.55;100.00;101397.68;1718408;81;21028;-86
2022/12/29 08:58:16;;;;;;;6.40;3.27;;;;;;;2.53;100.00;101391.65;1690381;83;21018;-86
2022/12/29 09:01:01;;;;;;;5.30;2.90;;;;;;;2.50;100.00;101386.67;1705902;82;20996;-86
2022/12/29 09:03:46;;;;;;;6.95;3.52;;;;;;;2.51;100.00;101397.76;1755634;81;21478;-86
2022/12/29 09:06:32;;;;;;;6.08;3.20;;;;;;;2.57;100.00;101398.31;1764765;80;20979;-86
2022/12/29 09:09:18;;;;;;;8.95;3.45;;;;;;;2.67;100.00;101393.02;1684612;83;21093;-86
2022/12/29 09:12:02;;;;;;;5.22;3.08;;;;;;;2.74;100.00;101401.97;1761159;81;21042;-86
2022/12/29 09:14:47;;;;;;;9.00;3.58;;;;;;;2.81;100.00;101397.42;1749213;81;21025;-86
2022/12/29 09:17:44;;;;;;;7.80;3.37;;;;;;;2.87;100.00;101387.17;1688282;83;21035;-88
2022/12/29 09:20:28;;;;;;;6.58;3.35;;;;;;;2.94;100.00;101370.95;1747414;81;21500;-87
2022/12/29 09:23:13;;;;;;;6.53;3.27;;;;;;;3.06;100.00;101372.53;1759928;80;20987;-87
2022/12/29 09:25:57;;;;;;;7.70;3.60;;;;;;;3.13;100.00;101366.61;1748737;80;21484;-87
2022/12/29 09:28:44;;;;;;;6.20;3.15;;;;;;;3.19;100.00;101353.61;1762326;81;21006;-87
2022/12/29 09:31:28;;;;;;;8.70;3.77;;;;;;;3.23;100.00;101348.11;1745295;79;21054;-86
2022/12/29 09:34:13;;;;;;;5.17;3.22;;;;;;;3.31;100.00;101347.89;1689053;82;21532;-87
2022/12/29 09:36:57;;;;;;;7.00;3.10;;;;;;;3.35;100.00;101351.84;1680569;84;21115;-87
2022/12/29 09:39:42;;;;;;;7.22;3.10;;;;;;;3.39;100.00;101350.40;1747886;81;20950;-87
2022/12/29 09:42:40;;;;;;;5.75;3.35;;;;;;;3.47;100.00;101355.27;1756525;81;21011;-88
2022/12/29 09:45:45;;;;;;;6.47;3.30;;;;;;;3.51;100.00;101351.09;1747678;81;20994;-87
2022/12/29 09:48:38;;;;;;;7.35;3.58;;;;;;;3.54;100.00;101341.23;1741889;81;22041;-87
2022/12/29 09:51:23;;;;;;;6.62;3.20;;;;;;;3.64;100.00;101349.73;1709414;83;21038;-87
2022/12/29 09:54:19;;;;;;;7.25;3.42;;;;;;;3.70;100.00;101358.33;1713514;82;21010;-86
2022/12/29 09:57:07;;;;;;;7.92;3.15;;;;;;;3.78;100.00;101368.91;1693327;82;21073;-87
2022/12/29 09:59:56;;;;;;;10.50;4.28;;;;;;;3.90;100.00;101375.03;1761391;80;21046;-86
2022/12/29 10:02:55;;;;;;;8.03;3.42;;;;;;;3.90;100.00;101366.39;1765474;81;21000;-88
2022/12/29 10:06:09;;;;;;;7.05;3.10;;;;;;;3.91;100.00;101367.21;1754161;81;20975;-87
2022/12/29 10:09:19;;;;;;;7.78;3.08;;;;;;;3.90;100.00;101360.98;1762265;81;20951;-88
2022/12/29 10:12:37;;;;;;;7.15;3.45;;;;;;;3.93;100.00;101359.23;1753613;81;21050;-87
2022/12/29 10:15:55;;;;;;;5.75;2.47;;;;;;;3.91;100.00;101345.58;1753441;81;20970;-87
2022/12/29 10:18:57;;;;;;;5.45;3.20;;;;;;;3.88;100.00;101339.58;1714111;83;21461;-87
2022/12/29 10:21:56;;;;;;;7.33;3.02;;;;;;;3.88;100.00;101345.48;1718355;82;21957;-87
2022/12/29 10:24:40;;;;;;;6.97;3.12;;;;;;;3.88;100.00;101334.17;1704337;83;20998;-87
2022/12/29 10:27:25;;;;;;;7.50;3.12;;;;;;;3.91;100.00;101333.41;1764883;81;21070;-87
2022/12/29 10:30:12;;;;;;;7.55;3.22;;;;;;;3.94;100.00;101346.53;1766063;81;20991;-87
2022/12/29 10:32:58;;;;;;;5.53;2.90;;;;;;;3.96;100.00;101334.98;1752231;81;21038;-88
2022/12/29 10:35:43;;;;;;;7.72;3.60;;;;;;;3.95;100.00;101327.89;1765863;81;21046;-87
2022/12/29 10:38:33;;;;;;;7.00;2.95;;;;;;;3.97;100.00;101314.99;1693178;83;21494;-88
2022/12/29 10:41:25;;;;;;;7.42;3.33;;;;;;;3.99;100.00;101334.55;1749849;81;21501;-87
2022/12/29 10:44:13;;;;;;;6.40;2.85;;;;;;;3.95;100.00;101336.01;1757779;81;21066;-87
2022/12/29 10:47:02;;;;;;;7.90;2.85;;;;;;;3.91;100.00;101327.51;1744931;80;21077;-88
2022/12/29 10:49:47;;;;;;;9.03;3.40;;;;;;;3.88;100.00;101304.43;1727246;81;20979;-87
2022/12/29 10:52:32;;;;;;;5.95;3.15;;;;;;;3.86;100.00;101298.40;1719464;83;21008;-87
2022/12/29 10:55:23;;;;;;;7.22;3.47;;;;;;;3.79;100.00;101301.65;1748288;81;21757;-87
2022/12/29 10:58:07;;;;;;;7.12;3.08;;;;;;;3.75;100.00;101298.23;1766056;80;21006;-88
2022/12/29 11:00:53;;;;;;;8.75;3.30;;;;;;;3.69;100.00;101297.22;1751315;81;20891;-87
2022/12/29 11:03:52;;;;;;;7.62;3.52;;;;;;;3.66;100.00;101289.55;1760133;81;21046;-87
2022/12/29 11:06:37;;;;;;;6.75;3.15;;;;;;;3.63;100.00;101290.77;1729871;82;21473;-87
2022/12/29 11:09:26;;;;;;;6.75;3.70;;;;;;;3.61;100.00;101294.73;1695832;82;21019;-87
2022/12/29 11:12:25;;;;;;;6.80;3.80;;;;;;;3.60;100.00;101297.13;1713180;83;21006;-87
2022/12/29 11:15:14;;;;;;;5.65;3.17;;;;;;;3.61;100.00;101294.73;1699416;82;21010;-87
2022/12/29 11:17:59;;;;;;;5.37;3.55;;;;;;;3.64;100.00;101295.67;1670556;85;21446;-87
2022/12/29 11:20:44;;;;;;;5.90;3.50;;;;;;;3.68;100.00;101295.53;1670549;84;21014;-87
2022/12/29 11:23:38;;;;;;;8.60;3.90;;;;;;;3.69;100.00;101291.81;1703853;83;21035;-87
2022/12/29 11:26:23;;;;;;;6.83;3.58;;;;;;;3.69;100.00;101297.22;1696462;82;21078;-87
2022/12/29 11:29:24;;;;;;;7.15;3.60;;;;;;;3.68;100.00;101295.53;1698502;83;21003;-88
2022/12/29 11:32:26;;;;;;;5.62;2.98;;;;;;;3.70;100.00;101292.11;1689615;84;21022;-87
2022/12/29 11:35:20;;;;;;;7.83;3.62;;;;;;;3.64;100.00;101288.92;1757770;81;21484;-87
2022/12/29 11:38:04;;;;;;;10.32;3.35;;;;;;;3.60;100.00;101285.80;1683138;83;21026;-87
2022/12/29 11:40:49;;;;;;;5.83;3.02;;;;;;;3.56;100.00;101288.63;1698959;83;21072;-87
2022/12/29 11:43:37;;;;;;;9.28;3.58;;;;;;;3.51;100.00;101290.28;1711581;83;21045;-87
2022/12/29 11:46:34;;;;;;;6.22;3.42;;;;;;;3.49;100.00;101281.06;1709948;83;21022;-87
2022/12/29 11:49:22;;;;;;;5.67;3.30;;;;;;;3.47;100.00;101272.86;1711434;83;21058;-87
2022/12/29 11:52:07;;;;;;;10.32;4.08;;;;;;;3.41;100.00;101276.72;1716386;82;21027;-87
2022/12/29 11:54:53;;;;;;;8.15;3.75;;;;;;;3.36;100.00;101268.42;1747928;81;21504;-86
2022/12/29 11:57:38;;;;;;;8.33;4.20;;;;;;;3.33;100.00;101265.30;1751858;80;21003;-87
2022/12/29 14:04:28;;;;;;;7.03;3.30;;;;;;;0.70;100.00;101291.84;1820611;77;28933;-86
2022/12/29 14:07:15;;;;;;;8.78;4.03;;;;;;;0.67;100.00;101296.27;1797865;78;21053;-87
2022/12/29 14:10:01;;;;;;;9.93;3.75;;;;;;;0.71;100.00;101288.63;1799518;78;20997;-84
2022/12/29 14:12:48;;;;;;;8.05;3.60;;;;;;;0.72;100.00;101297.86;1803094;77;20910;-84
2022/12/29 14:15:33;;;;;;;9.23;4.12;;;;;;;0.74;100.00;101305.72;1787309;78;21515;-84
2022/12/29 14:18:21;;;;;;;7.15;3.77;;;;;;;0.75;100.00;101300.67;1792146;78;20976;-84
2022/12/29 14:21:17;;;;;;;11.28;4.12;;;;;;;0.77;100.00;101304.84;1798358;78;21002;-85
2022/12/29 14:24:37;;;;;;;8.93;4.05;;;;;;;0.80;100.00;101305.78;1785624;78;20994;-85
2022/12/29 14:27:43;;;;;;;6.87;3.33;;;;;;;0.82;100.00;101299.70;1811291;77;21049;-84
2022/12/29 14:30:51;;;;;;;7.50;3.45;;;;;;;0.86;100.00;101304.99;1765959;79;21018;-85
2022/12/29 14:33:35;;;;;;;6.15;3.12;;;;;;;0.84;100.00;101311.11;1780075;79;21582;-85
2022/12/29 14:36:38;;;;;;;7.65;3.42;;;;;;;0.94;100.00;101312.61;1716506;81;21007;-84
2022/12/29 14:39:41;;;;;;;6.92;3.90;;;;;;;0.98;100.00;101312.03;1705589;82;21455;-85
2022/12/29 14:42:26;;;;;;;6.15;3.30;;;;;;;1.02;100.00;101313.84;1719727;82;21085;-85
2022/12/29 14:45:22;;;;;;;5.03;3.27;;;;;;;1.04;100.00;101317.17;1694071;82;21837;-84
2022/12/29 14:48:33;;;;;;;11.65;3.27;;;;;;;1.04;100.00;101319.86;1785379;77;20995;-85
2022/12/29 14:51:30;;;;;;;5.53;3.33;;;;;;;1.06;100.00;101318.64;1712915;82;21071;-85
2022/12/29 14:54:41;;;;;;;9.83;3.62;;;;;;;1.06;100.00;101299.80;1772414;79;21050;-84
2022/12/29 14:57:35;;;;;;;5.65;3.35;;;;;;;1.09;100.00;101294.53;1735264;80;21142;-85
2022/12/29 15:00:26;;;;;;;10.40;3.87;;;;;;;1.09;100.00;101293.19;1788658;79;20970;-84
2022/12/29 15:03:29;;;;;;;9.13;4.15;;;;;;;1.08;100.00;101290.16;1757645;80;21071;-85
2022/12/29 15:06:16;;;;;;;;;;;;;;;1.08;100.00;101290.16;1793988;79;21034;-85
2022/12/29 15:09:08;;;;;;;6.95;3.58;;;;;;;1.14;100.00;101292.08;1788831;79;20173;-85
2022/12/29 15:12:22;;;;;;;7.42;3.55;;;;;;;1.11;100.00;101297.84;1725238;81;21005;-85
2022/12/29 15:15:23;;;;;;;8.68;4.25;;;;;;;1.12;100.00;101304.91;1698419;82;21061;-85
2022/12/29 15:18:29;;;;;;;10.58;3.90;;;;;;;1.10;100.00;101292.14;1712465;80;21031;-85
2022/12/29 15:21:15;;;;;;;8.23;4.15;;;;;;;1.08;100.00;101291.50;1701947;82;21504;-85
2022/12/29 15:24:00;;;;;;;11.78;4.37;;;;;;;1.10;100.00;101300.22;1757240;79;21454;-84
2022/12/29 15:26:51;;;;;;;8.03;3.87;;;;;;;1.14;100.00;101302.84;1783543;78;21005;-85
2022/12/29 15:29:41;;;;;;;6.62;3.77;;;;;;;1.20;100.00;101294.49;1778490;79;20975;-85
2022/12/29 15:32:27;;;;;;;6.85;3.80;;;;;;;1.25;100.00;101303.64;1781756;78;21097;-85
2022/12/29 15:35:34;;;;;;;10.08;4.05;;;;;;;1.26;100.00;101299.08;1763516;79;21013;-84
2022/12/29 15:38:28;;;;;;;7.17;3.80;;;;;;;1.27;100.00;101294.02;1776933;79;21042;-84
2022/12/29 15:41:32;;;;;;;11.22;4.22;;;;;;;1.21;100.00;101301.53;1776941;79;21002;-84
2022/12/29 15:44:20;;;;;;;11.38;4.20;;;;;;;1.23;100.00;101298.13;1776949;78;21438;-86
2022/12/29 15:47:10;;;;;;;13.25;5.20;;;;;;;1.24;100.00;101297.95;1768337;79;21012;-85
2022/12/29 15:50:15;;;;;;;9.50;5.37;;;;;;;1.25;100.00;101291.52;1755733;79;21022;-87
2022/12/29 15:53:00;;;;;;;14.10;5.30;;;;;;;1.27;100.00;101289.98;1760863;79;21012;-85
2022/12/29 15:55:47;;;;;;;10.88;5.30;;;;;;;1.31;100.00;101285.02;1735157;79;21036;-85
2022/12/29 15:58:44;;;;;;;15.63;6.15;;;;;;;1.35;100.00;101289.00;1736862;80;21062;-86
2022/12/29 16:01:31;;;;;;;14.60;5.60;;;;;;;1.31;100.00;101289.06;1768466;79;20993;-85
2022/12/29 16:04:15;;;;;;;14.40;6.37;;;;;;;1.32;100.00;101283.49;1716081;81;21042;-85
2022/12/29 16:07:03;;;;;;;11.53;5.67;;;;;;;1.33;100.00;101283.80;1765492;79;21018;-86
2022/12/29 16:09:49;;;;;;;12.30;6.10;;;;;;;1.34;100.00;101281.44;1753038;79;20983;-86
2022/12/29 16:12:35;;;;;;;8.88;5.00;;;;;;;1.36;100.00;101282.56;1685810;83;21058;-86
2022/12/29 16:15:21;;;;;;;11.70;5.15;;;;;;;1.39;100.00;101277.63;1730344;80;21086;-86
2022/12/29 16:18:07;;;;;;;11.75;5.15;;;;;;;1.46;100.00;101264.21;1759842;79;21035;-86
2022/12/29 16:20:52;;;;;;;13.15;5.92;;;;;;;1.52;100.00;101264.75;1772760;79;21501;-85
2022/12/29 16:23:37;;;;;;;12.82;5.90;;;;;;;1.53;100.00;101278.52;1768038;79;21061;-86
2022/12/29 16:26:22;;;;;;;11.70;5.28;;;;;;;1.54;100.00;101284.77;1774509;79;20991;-85
2022/12/29 16:29:07;;;;;;;12.68;5.28;;;;;;;1.52;100.00;101280.91;1778779;79;21018;-88
2022/12/29 16:32:02;;;;;;;10.75;4.37;;;;;;;1.56;100.00;101279.49;1777479;79;21105;-87
2022/12/29 16:34:47;;;;;;;9.93;4.37;;;;;;;1.58;100.00;101278.75;1781243;79;21070;-87
2022/12/29 16:37:34;;;;;;;7.22;3.87;;;;;;;1.50;100.00;101278.92;1776474;78;21038;-88
2022/12/29 16:40:30;;;;;;;7.87;4.25;;;;;;;1.51;100.00;101275.22;1706918;82;21450;-87
2022/12/29 16:43:26;;;;;;;8.55;4.22;;;;;;;1.51;100.00;101265.80;1692414;82;21474;-87
2022/12/29 16:46:29;;;;;;;8.43;4.25;;;;;;;1.55;100.00;101267.55;1717167;82;21011;-87
2022/12/29 16:49:16;;;;;;;7.00;4.00;;;;;;;1.52;100.00;101276.88;1746573;79;21398;-88
2022/12/29 16:52:01;;;;;;;6.33;3.52;;;;;;;1.51;100.00;101280.61;1775928;79;21466;-88
2022/12/29 16:54:55;;;;;;;7.30;4.10;;;;;;;1.53;100.00;101283.08;1770458;79;21023;-87
2022/12/29 16:57:40;;;;;;;6.43;3.13;;;;;;;1.53;100.00;101256.97;1775479;79;21062;-88
2022/12/29 17:00:33;;;;;;;7.05;3.67;;;;;;;1.53;100.00;101256.97;1733425;79;21662;-87
2022/12/29 17:03:18;;;;;;;9.30;4.33;;;;;;;1.55;100.00;101256.26;1764475;79;21000;-88
2022/12/29 17:06:03;;;;;;;7.62;3.70;;;;;;;1.56;100.00;101264.67;1762337;80;20998;-88
2022/12/29 17:08:48;;;;;;;7.97;3.83;;;;;;;1.56;100.00;101263.33;1752103;79;20994;-87
2022/12/29 17:14:44;;;;;;;5.58;3.45;;;;;;;1.51;100.00;101256.36;1763748;81;21015;-87
2022/12/29 17:17:41;;;;;;;;;;;;;;;1.52;100.00;101260.70;1770186;79;21482;-87
2022/12/29 17:20:28;;;;;;;6.83;3.52;;;;;;;1.54;100.00;101259.17;1739823;81;20203;-88
2022/12/29 17:23:14;;;;;;;7.17;3.50;;;;;;;1.48;100.00;101254.05;1721494;81;22461;-87
2022/12/29 17:25:59;;;;;;;5.92;3.20;;;;;;;1.45;100.00;101249.89;1704574;83;21055;-87
2022/12/29 17:28:43;;;;;;;7.85;3.60;;;;;;;1.43;100.00;101239.83;1710096;82;21048;-87
2022/12/29 17:31:28;;;;;;;5.83;3.58;;;;;;;1.42;100.00;101241.39;1707172;83;21003;-88
2022/12/29 17:34:13;;;;;;;5.53;3.40;;;;;;;1.39;100.00;101244.48;1701088;82;21037;-87
2022/12/29 17:36:58;;;;;;;8.73;3.85;;;;;;;1.39;100.00;101236.41;1691338;82;21032;-88
2022/12/29 17:39:43;;;;;;;6.28;3.20;;;;;;;1.36;100.00;101232.26;1709861;82;21082;-88
2022/12/29 17:42:34;;;;;;;7.28;4.45;;;;;;;1.34;100.00;101225.41;1696396;82;21037;-87
2022/12/29 17:45:30;;;;;;;8.75;4.17;;;;;;;1.35;100.00;101224.36;1684802;83;21108;-87
2022/12/29 17:48:17;;;;;;;8.15;3.33;;;;;;;1.36;100.00;101219.28;1682176;83;20985;-88
2022/12/29 17:51:02;;;;;;;7.78;3.37;;;;;;;1.38;100.00;101224.78;1745231;80;21516;-87
2022/12/29 17:53:49;;;;;;;7.05;3.20;;;;;;;1.41;100.00;101217.67;1694832;82;21040;-87
2022/12/29 17:56:33;;;;;;;6.92;3.80;;;;;;;1.45;100.00;101215.40;1678832;83;21112;-88
2022/12/29 17:59:18;;;;;;;7.60;3.80;;;;;;;1.48;100.00;101216.34;1754994;79;21102;-88
2022/12/29 20:05:47;;;;;;;8.10;4.15;;;;;;;0.90;100.00;101192.95;1826320;77;28918;-85
2022/12/29 20:08:33;;;;;;;11.93;4.70;;;;;;;0.95;100.00;101199.40;1784337;78;21167;-86
2022/12/29 20:11:18;;;;;;;7.70;3.98;;;;;;;1.08;100.00;101196.77;1716850;81;21000;-86
2022/12/29 20:14:03;;;;;;;10.18;4.35;;;;;;;1.18;100.00;101192.38;1753032;81;21021;-87
2022/12/29 20:16:47;;;;;;;7.70;4.20;;;;;;;1.22;100.00;101190.95;1726557;82;21034;-88
2022/12/29 20:19:33;;;;;;;11.35;4.33;;;;;;;1.29;100.00;101189.13;1718774;82;21033;-87
2022/12/29 20:22:18;;;;;;;6.45;3.60;;;;;;;1.33;100.00;101182.81;1737094;80;21051;-87
2022/12/29 20:25:03;;;;;;;7.22;3.27;;;;;;;1.37;100.00;101183.26;1719338;82;21067;-86
2022/12/29 20:27:48;;;;;;;7.03;3.70;;;;;;;1.39;100.00;101169.91;1725119;81;21564;-87
2022/12/29 20:30:32;;;;;;;9.10;4.15;;;;;;;1.37;100.00;101173.31;1717535;82;21069;-86
2022/12/29 20:33:17;;;;;;;9.80;4.40;;;;;;;1.39;100.00;101179.86;1726386;81;21085;-86
2022/12/29 20:36:11;;;;;;;12.23;4.03;;;;;;;1.44;100.00;101172.00;1721955;82;21557;-86
2022/12/29 20:38:57;;;;;;;9.38;3.87;;;;;;;1.44;100.00;101180.08;1724672;81;21082;-86
2022/12/29 20:41:42;;;;;;;7.37;3.90;;;;;;;1.42;100.00;101182.97;1720393;83;21010;-86
2022/12/29 20:44:29;;;;;;;7.58;3.62;;;;;;;1.40;100.00;101177.47;1723894;82;21849;-86
2022/12/29 20:47:13;;;;;;;10.00;3.72;;;;;;;1.37;100.00;101181.91;1710432;82;21057;-86
2022/12/29 20:49:58;;;;;;;9.15;3.25;;;;;;;1.32;100.00;101178.99;1725087;82;21027;-86
2022/12/29 20:52:43;;;;;;;6.00;3.55;;;;;;;1.25;100.00;101173.56;1734193;81;21030;-86
2022/12/29 20:55:27;;;;;;;6.33;3.80;;;;;;;1.19;100.00;101172.52;1723607;81;21079;-86
2022/12/29 20:58:12;;;;;;;7.28;3.98;;;;;;;1.14;100.00;101176.33;1729578;81;21076;-86
2022/12/29 21:01:03;;;;;;;6.33;3.17;;;;;;;1.13;100.00;101185.41;1725584;81;21064;-86
2022/12/29 21:03:48;;;;;;;8.35;3.67;;;;;;;1.05;100.00;101185.06;1732658;81;21038;-86
2022/12/29 21:06:33;;;;;;;8.78;3.87;;;;;;;1.01;100.00;101191.86;1706158;83;21770;-88
2022/12/29 21:09:19;;;;;;;6.95;3.80;;;;;;;0.97;100.00;101181.72;1726944;80;20994;-88
2022/12/29 21:12:04;;;;;;;9.65;3.75;;;;;;;0.93;100.00;101193.37;1693352;83;21896;-89
2022/12/29 21:14:49;;;;;;;6.30;3.75;;;;;;;0.89;100.00;101192.13;1695967;82;21012;-88
2022/12/29 21:17:34;;;;;;;9.03;3.77;;;;;;;0.86;100.00;101187.94;1703675;82;21384;-87
2022/12/29 21:20:19;;;;;;;11.53;4.28;;;;;;;0.84;100.00;101190.02;1704640;83;21104;-88
2022/12/29 21:23:04;;;;;;;7.35;3.62;;;;;;;0.81;100.00;101186.36;1684083;83;21077;-88
2022/12/29 21:25:48;;;;;;;10.20;4.25;;;;;;;0.79;100.00;101187.59;1709843;80;20973;-88
2022/12/29 21:28:33;;;;;;;8.53;4.20;;;;;;;0.74;100.00;101184.16;1712397;80;21048;-87
2022/12/29 21:31:31;;;;;;;6.72;3.27;;;;;;;0.68;100.00;101191.66;1721786;82;21561;-88
2022/12/29 21:34:15;;;;;;;8.63;4.17;;;;;;;0.64;100.00;101186.34;1720560;81;21007;-88
2022/12/29 21:37:00;;;;;;;11.20;4.33;;;;;;;0.65;100.00;101188.02;1732037;80;21060;-88
2022/12/29 21:39:46;;;;;;;7.05;3.45;;;;;;;0.64;100.00;101187.20;1729481;81;21462;-88
2022/12/29 21:42:32;;;;;;;9.33;4.25;;;;;;;0.61;100.00;101186.22;1726653;81;21592;-89
2022/12/29 21:45:26;;;;;;;9.90;3.60;;;;;;;0.59;100.00;101191.48;1687571;80;21471;-87
2022/12/29 21:48:19;;;;;;;12.28;4.45;;;;;;;0.59;100.00;101183.41;1738506;80;20969;-88
